sensor_id;sensor_type;location;lat;lon;timestamp;temperature;humidity
18043;DHT22;9146;48.074;11.968;2024-03-08T00:00:00;-1.20;99.90
18043;DHT22;9146;48.074;11.968;2024-03-08T00:02:35;-1.20;99.90
18043;DHT22;9146;48.074;11.968;2024-03-08T00:05:02;-1.20;99.90
18043;DHT22;9146;48.074;11.968;2024-03-08T00:07:29;-1.20;99.90
18043;DHT22;9146;48.074;11.968;2024-03-08T00:09:58;-1.20;99.90
18043;DHT22;9146;48.074;11.968;2024-03-08T00:12:25;-1.20;99.90
18043;DHT22;9146;48.074;11.968;2024-03-08T00:14:52;-1.20;99.90
18043;DHT22;9146;48.074;11.968;2024-03-08T00:17:20;-1.20;99.90
18043;DHT22;9146;48.074;11.968;2024-03-08T00:19:48;-1.20;99.90
18043;DHT22;9146;48.074;11.968;2024-03-08T00:22:15;-1.20;99.90
18043;DHT22;9146;48.074;11.968;2024-03-08T00:24:42;-1.20;99.90
18043;DHT22;9146;48.074;11.968;2024-03-08T00:27:10;-1.10;99.90
18043;DHT22;9146;48.074;11.968;2024-03-08T00:29:37;-1.20;99.90
18043;DHT22;9146;48.074;11.968;2024-03-08T00:32:05;-1.20;99.90
18043;DHT22;9146;48.074;11.968;2024-03-08T00:34:35;-1.20;99.90
18043;DHT22;9146;48.074;11.968;2024-03-08T00:37:03;-1.20;99.90
18043;DHT22;9146;48.074;11.968;2024-03-08T00:39:30;-1.20;99.90
18043;DHT22;9146;48.074;11.968;2024-03-08T00:41:57;-1.20;99.90
18043;DHT22;9146;48.074;11.968;2024-03-08T00:44:25;-1.20;99.90
18043;DHT22;9146;48.074;11.968;2024-03-08T00:46:52;-1.20;99.90
18043;DHT22;9146;48.074;11.968;2024-03-08T00:49:19;-1.20;99.90
18043;DHT22;9146;48.074;11.968;2024-03-08T00:51:47;-1.20;99.90
18043;DHT22;9146;48.074;11.968;2024-03-08T00:54:14;-1.30;99.90
18043;DHT22;9146;48.074;11.968;2024-03-08T00:56:42;-1.30;99.90
18043;DHT22;9146;48.074;11.968;2024-03-08T00:59:08;-1.30;99.90
18043;DHT22;9146;48.074;11.968;2024-03-08T01:01:37;-1.30;99.90
18043;DHT22;9146;48.074;11.968;2024-03-08T01:04:05;-1.30;99.90
18043;DHT22;9146;48.074;11.968;2024-03-08T01:06:33;-1.40;99.90
18043;DHT22;9146;48.074;11.968;2024-03-08T01:09:00;-1.40;99.90
18043;DHT22;9146;48.074;11.968;2024-03-08T01:11:27;-1.40;99.90
18043;DHT22;9146;48.074;11.968;2024-03-08T01:13:54;-1.40;99.90
18043;DHT22;9146;48.074;11.968;2024-03-08T01:16:21;-1.50;99.90
18043;DHT22;9146;48.074;11.968;2024-03-08T01:18:49;-1.40;99.90
18043;DHT22;9146;48.074;11.968;2024-03-08T01:21:16;-1.50;99.90
18043;DHT22;9146;48.074;11.968;2024-03-08T01:23:44;-1.50;99.90
18043;DHT22;9146;48.074;11.968;2024-03-08T01:26:11;-1.50;99.90
18043;DHT22;9146;48.074;11.968;2024-03-08T01:28:40;-1.50;99.90
18043;DHT22;9146;48.074;11.968;2024-03-08T01:31:07;-1.50;99.90
18043;DHT22;9146;48.074;11.968;2024-03-08T01:33:34;-1.50;99.90
18043;DHT22;9146;48.074;11.968;2024-03-08T01:36:03;-1.50;99.90
18043;DHT22;9146;48.074;11.968;2024-03-08T01:38:30;-1.50;99.90
18043;DHT22;9146;48.074;11.968;2024-03-08T01:40:56;-1.50;99.90
18043;DHT22;9146;48.074;11.968;2024-03-08T01:43:26;-1.60;99.90
18043;DHT22;9146;48.074;11.968;2024-03-08T01:45:55;-1.60;99.90
18043;DHT22;9146;48.074;11.968;2024-03-08T01:48:23;-1.60;99.90
18043;DHT22;9146;48.074;11.968;2024-03-08T01:50:50;-1.60;99.90
18043;DHT22;9146;48.074;11.968;2024-03-08T01:53:19;-1.60;99.90
18043;DHT22;9146;48.074;11.968;2024-03-08T01:55:48;-1.60;99.90
18043;DHT22;9146;48.074;11.968;2024-03-08T01:58:15;-1.60;99.90
18043;DHT22;9146;48.074;11.968;2024-03-08T02:00:44;-1.50;99.90
18043;DHT22;9146;48.074;11.968;2024-03-08T02:03:14;-1.50;99.90
18043;DHT22;9146;48.074;11.968;2024-03-08T02:05:42;-1.60;99.90
18043;DHT22;9146;48.074;11.968;2024-03-08T02:08:09;-1.60;99.90
18043;DHT22;9146;48.074;11.968;2024-03-08T02:10:41;-1.60;99.90
18043;DHT22;9146;48.074;11.968;2024-03-08T02:13:08;-1.60;99.90
18043;DHT22;9146;48.074;11.968;2024-03-08T02:15:55;-1.60;99.90
18043;DHT22;9146;48.074;11.968;2024-03-08T02:18:22;-1.60;99.90
18043;DHT22;9146;48.074;11.968;2024-03-08T02:20:51;-1.60;99.90
18043;DHT22;9146;48.074;11.968;2024-03-08T02:23:18;-1.60;99.90
18043;DHT22;9146;48.074;11.968;2024-03-08T02:25:46;-1.60;99.90
18043;DHT22;9146;48.074;11.968;2024-03-08T02:28:13;-1.60;99.90
18043;DHT22;9146;48.074;11.968;2024-03-08T02:30:40;-1.70;99.90
18043;DHT22;9146;48.074;11.968;2024-03-08T02:33:07;-1.60;99.90
18043;DHT22;9146;48.074;11.968;2024-03-08T02:35:35;-1.60;99.90
18043;DHT22;9146;48.074;11.968;2024-03-08T02:38:04;-1.60;99.90
18043;DHT22;9146;48.074;11.968;2024-03-08T02:40:31;-1.60;99.90
18043;DHT22;9146;48.074;11.968;2024-03-08T02:42:58;-1.60;99.90
18043;DHT22;9146;48.074;11.968;2024-03-08T02:45:25;-1.60;99.90
18043;DHT22;9146;48.074;11.968;2024-03-08T02:47:52;-1.60;99.90
18043;DHT22;9146;48.074;11.968;2024-03-08T02:50:19;-1.60;99.90
18043;DHT22;9146;48.074;11.968;2024-03-08T02:52:47;-1.60;99.90
18043;DHT22;9146;48.074;11.968;2024-03-08T02:55:16;-1.70;99.90
18043;DHT22;9146;48.074;11.968;2024-03-08T02:57:43;-1.70;99.90
18043;DHT22;9146;48.074;11.968;2024-03-08T03:00:12;-1.70;99.90
18043;DHT22;9146;48.074;11.968;2024-03-08T03:02:39;-1.70;99.90
18043;DHT22;9146;48.074;11.968;2024-03-08T03:05:07;-1.70;99.90
18043;DHT22;9146;48.074;11.968;2024-03-08T03:07:35;-1.70;99.90
18043;DHT22;9146;48.074;11.968;2024-03-08T03:10:03;-1.70;99.90
18043;DHT22;9146;48.074;11.968;2024-03-08T03:12:32;-1.80;99.90
18043;DHT22;9146;48.074;11.968;2024-03-08T03:14:59;-1.80;99.90
18043;DHT22;9146;48.074;11.968;2024-03-08T03:17:27;-1.80;99.90
18043;DHT22;9146;48.074;11.968;2024-03-08T03:19:54;-1.80;99.90
18043;DHT22;9146;48.074;11.968;2024-03-08T03:22:21;-1.80;99.90
18043;DHT22;9146;48.074;11.968;2024-03-08T03:24:48;-1.90;99.90
18043;DHT22;9146;48.074;11.968;2024-03-08T03:27:17;-1.90;99.90
18043;DHT22;9146;48.074;11.968;2024-03-08T03:29:47;-1.90;99.90
18043;DHT22;9146;48.074;11.968;2024-03-08T03:32:15;-1.90;99.90
18043;DHT22;9146;48.074;11.968;2024-03-08T03:34:45;-1.90;99.90
18043;DHT22;9146;48.074;11.968;2024-03-08T03:37:12;-1.90;99.90
18043;DHT22;9146;48.074;11.968;2024-03-08T03:39:39;-1.90;99.90
18043;DHT22;9146;48.074;11.968;2024-03-08T03:42:14;-1.90;99.90
18043;DHT22;9146;48.074;11.968;2024-03-08T03:44:43;-1.80;99.90
18043;DHT22;9146;48.074;11.968;2024-03-08T03:47:12;-1.80;99.90
18043;DHT22;9146;48.074;11.968;2024-03-08T03:49:40;-1.80;99.90
18043;DHT22;9146;48.074;11.968;2024-03-08T03:52:07;-1.80;99.90
18043;DHT22;9146;48.074;11.968;2024-03-08T03:54:34;-1.80;99.90
18043;DHT22;9146;48.074;11.968;2024-03-08T03:57:02;-1.80;99.90
18043;DHT22;9146;48.074;11.968;2024-03-08T03:59:29;-1.80;99.90
18043;DHT22;9146;48.074;11.968;2024-03-08T04:01:56;-1.80;99.90
18043;DHT22;9146;48.074;11.968;2024-03-08T04:04:25;-1.80;99.90
18043;DHT22;9146;48.074;11.968;2024-03-08T04:06:52;-1.90;99.90
18043;DHT22;9146;48.074;11.968;2024-03-08T04:09:19;-1.90;99.90
18043;DHT22;9146;48.074;11.968;2024-03-08T04:11:48;-1.90;99.90
18043;DHT22;9146;48.074;11.968;2024-03-08T04:14:15;-1.90;99.90
18043;DHT22;9146;48.074;11.968;2024-03-08T04:16:42;-1.90;99.90
18043;DHT22;9146;48.074;11.968;2024-03-08T04:19:09;-1.90;99.90
18043;DHT22;9146;48.074;11.968;2024-03-08T04:21:37;-1.90;99.90
18043;DHT22;9146;48.074;11.968;2024-03-08T04:24:05;-1.90;99.90
18043;DHT22;9146;48.074;11.968;2024-03-08T04:26:32;-1.90;99.90
18043;DHT22;9146;48.074;11.968;2024-03-08T04:28:59;-1.90;99.90
18043;DHT22;9146;48.074;11.968;2024-03-08T04:31:27;-1.80;99.90
18043;DHT22;9146;48.074;11.968;2024-03-08T04:33:54;-1.90;99.90
18043;DHT22;9146;48.074;11.968;2024-03-08T04:36:21;-1.90;99.90
18043;DHT22;9146;48.074;11.968;2024-03-08T04:38:49;-1.90;99.90
18043;DHT22;9146;48.074;11.968;2024-03-08T04:41:16;-1.90;99.90
18043;DHT22;9146;48.074;11.968;2024-03-08T04:43:44;-1.90;99.90
18043;DHT22;9146;48.074;11.968;2024-03-08T04:46:11;-2.00;99.90
18043;DHT22;9146;48.074;11.968;2024-03-08T04:48:37;-2.00;99.90
18043;DHT22;9146;48.074;11.968;2024-03-08T04:51:04;-1.90;99.90
18043;DHT22;9146;48.074;11.968;2024-03-08T04:53:32;-1.90;99.90
18043;DHT22;9146;48.074;11.968;2024-03-08T04:56:01;-1.90;99.90
18043;DHT22;9146;48.074;11.968;2024-03-08T04:58:31;-1.80;99.90
18043;DHT22;9146;48.074;11.968;2024-03-08T05:00:59;-1.80;99.90
18043;DHT22;9146;48.074;11.968;2024-03-08T05:03:26;-1.70;99.90
18043;DHT22;9146;48.074;11.968;2024-03-08T05:05:52;-1.50;99.90
18043;DHT22;9146;48.074;11.968;2024-03-08T05:08:20;-1.40;99.90
18043;DHT22;9146;48.074;11.968;2024-03-08T05:10:46;-1.30;99.90
18043;DHT22;9146;48.074;11.968;2024-03-08T05:13:15;-1.40;99.90
18043;DHT22;9146;48.074;11.968;2024-03-08T05:15:42;-1.50;99.90
18043;DHT22;9146;48.074;11.968;2024-03-08T05:18:09;-1.40;99.90
18043;DHT22;9146;48.074;11.968;2024-03-08T05:20:36;-1.40;99.90
18043;DHT22;9146;48.074;11.968;2024-03-08T05:23:03;-1.40;99.90
18043;DHT22;9146;48.074;11.968;2024-03-08T05:25:31;-1.40;99.90
18043;DHT22;9146;48.074;11.968;2024-03-08T05:27:57;-1.40;99.90
18043;DHT22;9146;48.074;11.968;2024-03-08T05:30:26;-1.40;99.90
18043;DHT22;9146;48.074;11.968;2024-03-08T05:32:53;-1.40;99.90
18043;DHT22;9146;48.074;11.968;2024-03-08T05:35:20;-1.40;99.90
18043;DHT22;9146;48.074;11.968;2024-03-08T05:37:46;-1.40;99.90
18043;DHT22;9146;48.074;11.968;2024-03-08T05:40:13;-1.40;99.90
18043;DHT22;9146;48.074;11.968;2024-03-08T05:42:40;-1.40;99.90
18043;DHT22;9146;48.074;11.968;2024-03-08T05:45:08;-1.40;99.90
18043;DHT22;9146;48.074;11.968;2024-03-08T05:47:36;-1.40;99.90
18043;DHT22;9146;48.074;11.968;2024-03-08T05:50:06;-1.30;99.90
18043;DHT22;9146;48.074;11.968;2024-03-08T05:52:36;-1.30;99.90
18043;DHT22;9146;48.074;11.968;2024-03-08T05:55:03;-1.30;99.90
18043;DHT22;9146;48.074;11.968;2024-03-08T05:57:32;-1.30;99.90
18043;DHT22;9146;48.074;11.968;2024-03-08T05:59:59;-1.20;99.90
18043;DHT22;9146;48.074;11.968;2024-03-08T06:02:26;-1.20;99.90
18043;DHT22;9146;48.074;11.968;2024-03-08T06:04:55;-1.20;99.90
18043;DHT22;9146;48.074;11.968;2024-03-08T06:07:22;-1.20;99.90
18043;DHT22;9146;48.074;11.968;2024-03-08T06:09:49;-1.10;99.90
18043;DHT22;9146;48.074;11.968;2024-03-08T06:12:15;-1.10;99.90
18043;DHT22;9146;48.074;11.968;2024-03-08T06:14:44;-1.00;99.90
18043;DHT22;9146;48.074;11.968;2024-03-08T06:17:11;-1.00;99.90
18043;DHT22;9146;48.074;11.968;2024-03-08T06:19:38;-0.90;99.90
18043;DHT22;9146;48.074;11.968;2024-03-08T06:22:06;-0.90;99.90
18043;DHT22;9146;48.074;11.968;2024-03-08T06:24:35;-0.80;99.90
18043;DHT22;9146;48.074;11.968;2024-03-08T06:27:03;-0.80;99.90
18043;DHT22;9146;48.074;11.968;2024-03-08T06:29:30;-0.70;99.90
18043;DHT22;9146;48.074;11.968;2024-03-08T06:31:57;-0.70;99.90
18043;DHT22;9146;48.074;11.968;2024-03-08T06:34:26;-0.60;99.90
18043;DHT22;9146;48.074;11.968;2024-03-08T06:36:53;-0.60;99.90
18043;DHT22;9146;48.074;11.968;2024-03-08T06:39:27;-0.50;99.90
18043;DHT22;9146;48.074;11.968;2024-03-08T06:41:57;-0.50;99.90
18043;DHT22;9146;48.074;11.968;2024-03-08T06:44:24;-0.40;99.90
18043;DHT22;9146;48.074;11.968;2024-03-08T06:46:51;-0.40;99.90
18043;DHT22;9146;48.074;11.968;2024-03-08T06:49:18;-0.50;99.90
18043;DHT22;9146;48.074;11.968;2024-03-08T06:51:45;-0.50;99.90
18043;DHT22;9146;48.074;11.968;2024-03-08T06:54:12;-0.50;99.90
18043;DHT22;9146;48.074;11.968;2024-03-08T06:56:40;-0.40;99.90
18043;DHT22;9146;48.074;11.968;2024-03-08T06:59:07;-0.40;99.90
18043;DHT22;9146;48.074;11.968;2024-03-08T07:01:36;-0.30;99.90
18043;DHT22;9146;48.074;11.968;2024-03-08T07:04:04;-0.30;99.90
18043;DHT22;9146;48.074;11.968;2024-03-08T07:06:31;-0.20;99.90
18043;DHT22;9146;48.074;11.968;2024-03-08T07:09:00;-0.10;99.90
18043;DHT22;9146;48.074;11.968;2024-03-08T07:11:27;-0.10;99.90
18043;DHT22;9146;48.074;11.968;2024-03-08T07:13:55;0.00;99.90
18043;DHT22;9146;48.074;11.968;2024-03-08T07:16:23;0.10;99.90
18043;DHT22;9146;48.074;11.968;2024-03-08T07:18:52;0.20;99.90
18043;DHT22;9146;48.074;11.968;2024-03-08T07:21:19;0.30;99.90
18043;DHT22;9146;48.074;11.968;2024-03-08T07:23:46;0.40;99.90
18043;DHT22;9146;48.074;11.968;2024-03-08T07:26:28;0.50;99.90
18043;DHT22;9146;48.074;11.968;2024-03-08T07:28:57;0.50;99.90
18043;DHT22;9146;48.074;11.968;2024-03-08T07:31:26;0.50;99.90
18043;DHT22;9146;48.074;11.968;2024-03-08T07:34:03;0.50;99.90
18043;DHT22;9146;48.074;11.968;2024-03-08T07:36:33;0.60;99.90
18043;DHT22;9146;48.074;11.968;2024-03-08T07:39:00;0.60;99.90
18043;DHT22;9146;48.074;11.968;2024-03-08T07:41:27;0.60;99.90
18043;DHT22;9146;48.074;11.968;2024-03-08T07:43:54;0.60;99.90
18043;DHT22;9146;48.074;11.968;2024-03-08T07:46:23;0.50;99.90
18043;DHT22;9146;48.074;11.968;2024-03-08T07:48:50;0.60;99.90
18043;DHT22;9146;48.074;11.968;2024-03-08T07:51:17;0.70;99.90
18043;DHT22;9146;48.074;11.968;2024-03-08T07:53:44;0.80;99.90
18043;DHT22;9146;48.074;11.968;2024-03-08T07:56:11;0.80;99.90
18043;DHT22;9146;48.074;11.968;2024-03-08T07:58:39;0.90;99.90
18043;DHT22;9146;48.074;11.968;2024-03-08T08:01:07;0.90;99.90
18043;DHT22;9146;48.074;11.968;2024-03-08T08:03:35;0.90;99.90
18043;DHT22;9146;48.074;11.968;2024-03-08T08:06:04;1.00;99.90
18043;DHT22;9146;48.074;11.968;2024-03-08T08:08:30;1.00;99.90
18043;DHT22;9146;48.074;11.968;2024-03-08T08:10:58;1.20;99.90
18043;DHT22;9146;48.074;11.968;2024-03-08T08:13:27;1.30;99.90
18043;DHT22;9146;48.074;11.968;2024-03-08T08:15:57;1.30;99.90
18043;DHT22;9146;48.074;11.968;2024-03-08T08:18:24;1.40;99.90
18043;DHT22;9146;48.074;11.968;2024-03-08T08:20:53;1.40;99.90
18043;DHT22;9146;48.074;11.968;2024-03-08T08:23:20;1.40;99.90
18043;DHT22;9146;48.074;11.968;2024-03-08T08:25:47;1.40;99.90
18043;DHT22;9146;48.074;11.968;2024-03-08T08:28:15;1.40;99.90
18043;DHT22;9146;48.074;11.968;2024-03-08T08:30:43;1.40;99.90
18043;DHT22;9146;48.074;11.968;2024-03-08T08:33:10;1.50;99.90
18043;DHT22;9146;48.074;11.968;2024-03-08T08:35:37;1.50;99.90
18043;DHT22;9146;48.074;11.968;2024-03-08T08:38:06;1.60;99.90
18043;DHT22;9146;48.074;11.968;2024-03-08T08:40:33;1.50;99.90
18043;DHT22;9146;48.074;11.968;2024-03-08T08:43:01;1.50;99.90
18043;DHT22;9146;48.074;11.968;2024-03-08T08:45:30;1.50;99.90
18043;DHT22;9146;48.074;11.968;2024-03-08T08:47:57;1.50;99.90
18043;DHT22;9146;48.074;11.968;2024-03-08T08:50:25;1.60;99.90
18043;DHT22;9146;48.074;11.968;2024-03-08T08:52:54;1.60;99.90
18043;DHT22;9146;48.074;11.968;2024-03-08T08:55:22;1.80;99.90
18043;DHT22;9146;48.074;11.968;2024-03-08T08:57:51;1.80;99.90
18043;DHT22;9146;48.074;11.968;2024-03-08T09:00:19;1.80;99.90
18043;DHT22;9146;48.074;11.968;2024-03-08T09:02:46;1.90;99.90
18043;DHT22;9146;48.074;11.968;2024-03-08T09:05:14;2.00;99.90
18043;DHT22;9146;48.074;11.968;2024-03-08T09:07:42;2.10;99.90
18043;DHT22;9146;48.074;11.968;2024-03-08T09:10:11;2.10;99.90
18043;DHT22;9146;48.074;11.968;2024-03-08T09:12:41;2.10;99.90
18043;DHT22;9146;48.074;11.968;2024-03-08T09:15:08;2.20;99.90
18043;DHT22;9146;48.074;11.968;2024-03-08T09:17:36;2.20;99.90
18043;DHT22;9146;48.074;11.968;2024-03-08T09:20:06;2.30;99.90
18043;DHT22;9146;48.074;11.968;2024-03-08T09:22:34;2.40;99.90
18043;DHT22;9146;48.074;11.968;2024-03-08T09:25:03;2.40;99.90
18043;DHT22;9146;48.074;11.968;2024-03-08T09:27:31;2.50;99.90
18043;DHT22;9146;48.074;11.968;2024-03-08T09:29:59;2.70;99.90
18043;DHT22;9146;48.074;11.968;2024-03-08T09:32:28;2.60;99.90
18043;DHT22;9146;48.074;11.968;2024-03-08T09:34:55;2.70;99.90
18043;DHT22;9146;48.074;11.968;2024-03-08T09:37:22;2.70;99.90
18043;DHT22;9146;48.074;11.968;2024-03-08T09:39:49;2.70;99.90
18043;DHT22;9146;48.074;11.968;2024-03-08T09:42:16;2.80;99.90
18043;DHT22;9146;48.074;11.968;2024-03-08T09:44:46;2.90;99.90
18043;DHT22;9146;48.074;11.968;2024-03-08T09:47:15;2.90;99.90
18043;DHT22;9146;48.074;11.968;2024-03-08T09:49:42;3.00;99.90
18043;DHT22;9146;48.074;11.968;2024-03-08T09:52:10;3.00;99.90
18043;DHT22;9146;48.074;11.968;2024-03-08T09:54:38;3.10;99.90
18043;DHT22;9146;48.074;11.968;2024-03-08T09:57:06;3.20;99.90
18043;DHT22;9146;48.074;11.968;2024-03-08T09:59:34;3.20;99.90
18043;DHT22;9146;48.074;11.968;2024-03-08T10:02:16;3.30;99.90
18043;DHT22;9146;48.074;11.968;2024-03-08T10:04:44;3.40;99.90
18043;DHT22;9146;48.074;11.968;2024-03-08T10:07:12;3.50;99.90
18043;DHT22;9146;48.074;11.968;2024-03-08T10:09:40;3.50;99.90
18043;DHT22;9146;48.074;11.968;2024-03-08T10:12:13;3.50;99.90
18043;DHT22;9146;48.074;11.968;2024-03-08T10:14:40;3.50;99.90
18043;DHT22;9146;48.074;11.968;2024-03-08T10:17:07;3.50;99.90
18043;DHT22;9146;48.074;11.968;2024-03-08T10:19:36;3.50;99.90
18043;DHT22;9146;48.074;11.968;2024-03-08T10:22:03;3.60;99.90
18043;DHT22;9146;48.074;11.968;2024-03-08T10:24:31;3.70;99.90
18043;DHT22;9146;48.074;11.968;2024-03-08T10:26:59;3.70;99.90
18043;DHT22;9146;48.074;11.968;2024-03-08T10:29:30;3.80;99.90
18043;DHT22;9146;48.074;11.968;2024-03-08T10:31:57;3.90;99.90
18043;DHT22;9146;48.074;11.968;2024-03-08T10:34:24;3.90;99.90
18043;DHT22;9146;48.074;11.968;2024-03-08T10:36:53;4.00;99.90
18043;DHT22;9146;48.074;11.968;2024-03-08T10:39:23;4.00;99.90
18043;DHT22;9146;48.074;11.968;2024-03-08T10:41:53;4.10;99.90
18043;DHT22;9146;48.074;11.968;2024-03-08T10:44:40;4.20;99.90
18043;DHT22;9146;48.074;11.968;2024-03-08T10:47:17;4.20;99.90
18043;DHT22;9146;48.074;11.968;2024-03-08T10:49:51;4.30;99.90
18043;DHT22;9146;48.074;11.968;2024-03-08T10:52:22;4.40;99.90
18043;DHT22;9146;48.074;11.968;2024-03-08T10:54:49;4.40;99.90
18043;DHT22;9146;48.074;11.968;2024-03-08T10:57:19;4.60;99.90
18043;DHT22;9146;48.074;11.968;2024-03-08T10:59:49;4.50;99.90
18043;DHT22;9146;48.074;11.968;2024-03-08T11:02:19;4.60;99.90
18043;DHT22;9146;48.074;11.968;2024-03-08T11:04:47;4.60;99.90
18043;DHT22;9146;48.074;11.968;2024-03-08T11:07:15;4.70;99.90
18043;DHT22;9146;48.074;11.968;2024-03-08T11:09:47;4.70;99.90
18043;DHT22;9146;48.074;11.968;2024-03-08T11:12:22;4.70;99.90
18043;DHT22;9146;48.074;11.968;2024-03-08T11:14:52;4.80;99.90
18043;DHT22;9146;48.074;11.968;2024-03-08T11:17:40;4.90;99.90
18043;DHT22;9146;48.074;11.968;2024-03-08T11:20:10;4.90;99.90
18043;DHT22;9146;48.074;11.968;2024-03-08T11:22:42;5.00;99.90
18043;DHT22;9146;48.074;11.968;2024-03-08T11:25:34;5.10;99.90
18043;DHT22;9146;48.074;11.968;2024-03-08T11:28:13;5.10;99.90
18043;DHT22;9146;48.074;11.968;2024-03-08T11:30:43;5.20;99.90
18043;DHT22;9146;48.074;11.968;2024-03-08T11:33:11;5.20;99.90
18043;DHT22;9146;48.074;11.968;2024-03-08T11:35:39;5.30;99.90
18043;DHT22;9146;48.074;11.968;2024-03-08T11:38:08;5.40;99.90
18043;DHT22;9146;48.074;11.968;2024-03-08T11:40:37;5.40;99.90
18043;DHT22;9146;48.074;11.968;2024-03-08T11:43:05;5.40;99.90
18043;DHT22;9146;48.074;11.968;2024-03-08T11:45:33;5.50;99.90
18043;DHT22;9146;48.074;11.968;2024-03-08T11:48:02;5.60;99.90
18043;DHT22;9146;48.074;11.968;2024-03-08T11:50:30;5.60;99.90
18043;DHT22;9146;48.074;11.968;2024-03-08T11:53:01;5.60;99.90
18043;DHT22;9146;48.074;11.968;2024-03-08T11:55:29;5.70;99.90
18043;DHT22;9146;48.074;11.968;2024-03-08T11:58:02;5.70;99.90
18043;DHT22;9146;48.074;11.968;2024-03-08T12:00:30;5.80;99.90
18043;DHT22;9146;48.074;11.968;2024-03-08T12:03:08;5.80;99.90
18043;DHT22;9146;48.074;11.968;2024-03-08T12:05:36;5.90;99.90
18043;DHT22;9146;48.074;11.968;2024-03-08T12:08:04;6.00;99.90
18043;DHT22;9146;48.074;11.968;2024-03-08T12:10:32;6.10;99.90
18043;DHT22;9146;48.074;11.968;2024-03-08T12:13:02;6.10;99.90
18043;DHT22;9146;48.074;11.968;2024-03-08T12:15:30;6.10;99.90
18043;DHT22;9146;48.074;11.968;2024-03-08T12:17:59;6.20;99.90
18043;DHT22;9146;48.074;11.968;2024-03-08T12:20:28;6.30;99.90
18043;DHT22;9146;48.074;11.968;2024-03-08T12:22:56;6.30;99.90
18043;DHT22;9146;48.074;11.968;2024-03-08T12:25:26;6.40;99.90
18043;DHT22;9146;48.074;11.968;2024-03-08T12:27:53;6.40;99.90
18043;DHT22;9146;48.074;11.968;2024-03-08T12:30:25;6.40;99.90
18043;DHT22;9146;48.074;11.968;2024-03-08T12:32:55;6.40;99.90
18043;DHT22;9146;48.074;11.968;2024-03-08T12:35:24;6.40;99.90
18043;DHT22;9146;48.074;11.968;2024-03-08T12:37:53;6.50;99.90
18043;DHT22;9146;48.074;11.968;2024-03-08T12:40:26;6.60;99.90
18043;DHT22;9146;48.074;11.968;2024-03-08T12:42:54;6.60;99.90
18043;DHT22;9146;48.074;11.968;2024-03-08T12:45:21;6.60;99.90
18043;DHT22;9146;48.074;11.968;2024-03-08T12:47:51;6.60;99.90
18043;DHT22;9146;48.074;11.968;2024-03-08T12:50:18;6.70;99.90
18043;DHT22;9146;48.074;11.968;2024-03-08T12:52:45;6.60;99.90
18043;DHT22;9146;48.074;11.968;2024-03-08T12:55:13;6.70;99.90
18043;DHT22;9146;48.074;11.968;2024-03-08T12:57:42;6.70;99.90
18043;DHT22;9146;48.074;11.968;2024-03-08T13:00:10;6.70;99.90
18043;DHT22;9146;48.074;11.968;2024-03-08T13:02:39;6.80;99.90
18043;DHT22;9146;48.074;11.968;2024-03-08T13:05:09;6.80;99.90
18043;DHT22;9146;48.074;11.968;2024-03-08T13:07:36;6.90;99.90
18043;DHT22;9146;48.074;11.968;2024-03-08T13:10:05;6.90;99.90
18043;DHT22;9146;48.074;11.968;2024-03-08T13:12:32;6.90;99.90
18043;DHT22;9146;48.074;11.968;2024-03-08T13:15:03;7.00;99.90
18043;DHT22;9146;48.074;11.968;2024-03-08T13:17:32;6.90;99.90
18043;DHT22;9146;48.074;11.968;2024-03-08T13:19:59;7.10;99.90
18043;DHT22;9146;48.074;11.968;2024-03-08T13:22:28;7.00;99.90
18043;DHT22;9146;48.074;11.968;2024-03-08T13:24:55;7.00;99.90
18043;DHT22;9146;48.074;11.968;2024-03-08T13:27:22;7.00;99.90
18043;DHT22;9146;48.074;11.968;2024-03-08T13:29:50;7.00;99.90
18043;DHT22;9146;48.074;11.968;2024-03-08T13:32:18;7.00;99.90
18043;DHT22;9146;48.074;11.968;2024-03-08T13:34:46;7.10;99.90
18043;DHT22;9146;48.074;11.968;2024-03-08T13:37:16;7.10;99.90
18043;DHT22;9146;48.074;11.968;2024-03-08T13:39:45;7.20;99.90
18043;DHT22;9146;48.074;11.968;2024-03-08T13:42:12;7.30;99.90
18043;DHT22;9146;48.074;11.968;2024-03-08T13:44:45;7.40;99.90
18043;DHT22;9146;48.074;11.968;2024-03-08T13:47:13;7.60;99.90
18043;DHT22;9146;48.074;11.968;2024-03-08T13:49:40;7.60;99.90
18043;DHT22;9146;48.074;11.968;2024-03-08T13:52:09;7.20;99.90
18043;DHT22;9146;48.074;11.968;2024-03-08T13:54:38;7.70;99.90
18043;DHT22;9146;48.074;11.968;2024-03-08T13:57:07;7.70;99.90
18043;DHT22;9146;48.074;11.968;2024-03-08T13:59:34;7.70;99.90
18043;DHT22;9146;48.074;11.968;2024-03-08T14:02:09;7.80;99.90
18043;DHT22;9146;48.074;11.968;2024-03-08T14:04:38;7.80;99.90
18043;DHT22;9146;48.074;11.968;2024-03-08T14:07:07;7.90;99.90
18043;DHT22;9146;48.074;11.968;2024-03-08T14:09:34;8.00;99.90
18043;DHT22;9146;48.074;11.968;2024-03-08T14:12:03;8.00;99.90
18043;DHT22;9146;48.074;11.968;2024-03-08T14:14:34;7.90;99.90
18043;DHT22;9146;48.074;11.968;2024-03-08T14:17:01;7.80;99.90
18043;DHT22;9146;48.074;11.968;2024-03-08T14:19:29;7.70;99.90
18043;DHT22;9146;48.074;11.968;2024-03-08T14:21:57;7.70;99.90
18043;DHT22;9146;48.074;11.968;2024-03-08T14:24:24;7.60;99.90
18043;DHT22;9146;48.074;11.968;2024-03-08T14:26:52;7.50;99.90
18043;DHT22;9146;48.074;11.968;2024-03-08T14:29:19;7.50;99.90
18043;DHT22;9146;48.074;11.968;2024-03-08T14:31:47;7.40;99.90
18043;DHT22;9146;48.074;11.968;2024-03-08T14:34:14;7.40;99.90
18043;DHT22;9146;48.074;11.968;2024-03-08T14:36:42;7.30;99.90
18043;DHT22;9146;48.074;11.968;2024-03-08T14:39:10;7.30;99.90
18043;DHT22;9146;48.074;11.968;2024-03-08T14:41:37;7.30;99.90
18043;DHT22;9146;48.074;11.968;2024-03-08T14:44:04;7.30;99.90
18043;DHT22;9146;48.074;11.968;2024-03-08T14:46:31;7.30;99.90
18043;DHT22;9146;48.074;11.968;2024-03-08T14:48:59;7.30;99.90
18043;DHT22;9146;48.074;11.968;2024-03-08T14:51:26;7.20;99.90
18043;DHT22;9146;48.074;11.968;2024-03-08T14:53:53;7.30;99.90
18043;DHT22;9146;48.074;11.968;2024-03-08T14:56:21;7.30;99.90
18043;DHT22;9146;48.074;11.968;2024-03-08T14:58:48;7.20;99.90
18043;DHT22;9146;48.074;11.968;2024-03-08T15:01:17;7.30;99.90
18043;DHT22;9146;48.074;11.968;2024-03-08T15:03:48;7.10;99.90
18043;DHT22;9146;48.074;11.968;2024-03-08T15:06:16;7.20;99.90
18043;DHT22;9146;48.074;11.968;2024-03-08T15:08:45;6.80;99.90
18043;DHT22;9146;48.074;11.968;2024-03-08T15:11:13;6.10;99.90
18043;DHT22;9146;48.074;11.968;2024-03-08T15:13:47;7.20;99.90
18043;DHT22;9146;48.074;11.968;2024-03-08T15:16:17;7.20;99.90
18043;DHT22;9146;48.074;11.968;2024-03-08T15:21:13;7.20;99.90
18043;DHT22;9146;48.074;11.968;2024-03-08T15:23:46;7.20;99.90
18043;DHT22;9146;48.074;11.968;2024-03-08T15:26:17;7.20;99.90
18043;DHT22;9146;48.074;11.968;2024-03-08T15:28:44;7.20;99.90
18043;DHT22;9146;48.074;11.968;2024-03-08T15:31:13;7.10;99.90
18043;DHT22;9146;48.074;11.968;2024-03-08T15:33:40;7.10;99.90
18043;DHT22;9146;48.074;11.968;2024-03-08T15:36:10;7.10;99.90
18043;DHT22;9146;48.074;11.968;2024-03-08T15:38:40;7.10;99.90
18043;DHT22;9146;48.074;11.968;2024-03-08T15:41:10;7.10;99.90
18043;DHT22;9146;48.074;11.968;2024-03-08T15:43:38;7.10;99.90
18043;DHT22;9146;48.074;11.968;2024-03-08T15:46:05;7.10;99.90
18043;DHT22;9146;48.074;11.968;2024-03-08T15:48:33;7.10;99.90